Time;durP1;ratioP1;P1;durP2;ratioP2;P2;SDS_P1;SDS_P2;PMS_P1;PMS_P2;Temp;Humidity;BMP_temperature;BMP_pressure;BME280_temperature;BME280_humidity;BME280_pressure;Samples;Min_cycle;Max_cycle;Signal;HPM_P1;HPM_P2
2022/02/05 00:00:35;;;;;;;25.17;12.95;;;;;;;0.56;68.54;100392.03;5087563;28;20090;-21
2022/02/05 00:08:27;;;;;;;23.50;13.43;;;;;;;0.60;68.59;100395.22;5087358;28;20499;-20
2022/02/05 00:14:22;;;;;;;24.02;13.23;;;;;;;0.44;69.40;100392.38;5069016;28;20032;-20
2022/02/05 00:43:16;;;;;;;35.50;17.58;;;;;;;-0.42;71.22;100416.88;5062968;28;20125;-21
2022/02/05 00:45:45;;;;;;;27.15;15.30;;;;;;;-0.64;72.78;100423.22;5090456;28;20496;-20
2022/02/05 00:48:12;;;;;;;28.67;15.65;;;;;;;-0.68;73.20;100404.34;5073388;28;20028;-20
2022/02/05 00:50:39;;;;;;;24.25;14.05;;;;;;;-0.42;73.39;100419.50;5072552;28;20046;-21
2022/02/05 00:53:11;;;;;;;25.02;13.70;;;;;;;-0.19;71.88;100404.31;5072718;28;20036;-21
2022/02/05 00:55:40;;;;;;;23.65;14.55;;;;;;;-0.04;70.76;100407.28;5090136;28;20042;-21
2022/02/05 00:58:06;;;;;;;26.52;14.25;;;;;;;-0.22;71.05;100394.13;5078375;28;20028;-21
2022/02/05 01:00:33;;;;;;;27.38;15.00;;;;;;;-0.65;72.36;100405.88;5080350;28;20035;-22
2022/02/05 01:02:58;;;;;;;30.65;16.52;;;;;;;-0.73;74.28;100416.22;5061732;28;20028;-20
2022/02/05 01:05:24;;;;;;;31.75;17.30;;;;;;;-0.94;74.02;100409.28;5079316;28;20032;-22
2022/02/05 01:07:49;;;;;;;32.90;16.83;;;;;;;-1.37;75.21;100370.34;5087412;28;20055;-22
2022/02/05 01:10:15;;;;;;;30.08;16.50;;;;;;;-0.97;73.65;100356.38;5072224;28;20087;-21
2022/02/05 01:12:46;;;;;;;36.22;16.08;;;;;;;-1.36;75.08;100378.06;5089985;28;20028;-21
2022/02/05 01:15:12;;;;;;;43.35;20.20;;;;;;;-0.81;74.11;100375.81;5090061;28;20407;-21
2022/02/05 01:17:46;;;;;;;35.38;19.13;;;;;;;-0.91;73.03;100376.78;5089986;28;20097;-21
2022/02/05 01:22:59;;;;;;;30.75;16.15;;;;;;;-1.02;73.33;100380.34;5089978;28;20039;-21
2022/02/05 01:25:30;;;;;;;31.77;17.13;;;;;;;-0.60;71.81;100369.59;5089583;28;20035;-22
2022/02/05 01:28:01;;;;;;;32.53;17.55;;;;;;;-0.39;70.68;100360.75;5071557;28;20120;-21
2022/02/05 01:30:35;;;;;;;33.00;18.15;;;;;;;-0.24;70.35;100375.09;5090186;28;20082;-21
2022/02/05 01:36:20;;;;;;;30.38;17.00;;;;;;;-0.46;71.06;100350.81;5034106;28;20048;-20
2022/02/05 01:53:16;;;;;;;33.88;19.58;;;;;;;-0.47;71.97;100346.56;5089313;28;20043;-21
2022/02/05 01:55:29;;;;;;;36.03;20.10;;;;;;;-0.30;71.74;100341.56;5077070;28;20029;-21
2022/02/05 01:58:14;;;;;;;35.75;20.17;;;;;;;-0.21;71.15;100369.53;5074008;28;20040;-21
2022/02/05 02:22:15;;;;;;;54.30;29.52;;;;;;;-0.39;71.47;100371.22;5057332;28;20543;-20
2022/02/05 02:32:21;;;;;;;56.20;28.48;;;;;;;-1.23;73.43;100368.19;5089067;28;20023;-21
2022/02/05 02:34:51;;;;;;;58.22;30.02;;;;;;;-1.07;71.71;100340.66;5088783;28;20043;-21
2022/02/05 02:37:23;;;;;;;53.58;27.88;;;;;;;-0.76;71.15;100369.31;5088888;28;20036;-21
2022/02/05 02:42:18;;;;;;;54.72;27.95;;;;;;;-1.78;74.01;100361.69;5088603;28;20043;-22
2022/02/05 02:44:44;;;;;;;50.95;29.20;;;;;;;-0.96;72.11;100379.81;5070245;28;20168;-21
2022/02/05 02:47:09;;;;;;;53.22;29.90;;;;;;;-0.74;71.37;100373.47;5088771;28;20028;-21
2022/02/05 02:57:32;;;;;;;53.60;27.27;;;;;;;-1.63;72.00;100369.03;5088175;28;20046;-21
2022/02/05 03:00:06;;;;;;;59.55;29.92;;;;;;;-1.16;71.02;100372.91;5088179;28;20060;-20
2022/02/05 03:02:32;;;;;;;65.72;31.92;;;;;;;-1.35;72.46;100381.50;5071470;28;20031;-20
2022/02/05 03:04:57;;;;;;;67.85;32.55;;;;;;;-0.61;70.13;100384.50;5088181;28;20412;-21
2022/02/05 03:07:23;;;;;;;116.30;49.08;;;;;;;-0.51;69.38;100379.25;5087526;28;20087;-22
2022/02/05 03:09:50;;;;;;;67.70;36.05;;;;;;;-0.68;70.27;100357.19;5088319;28;20038;-21
2022/02/05 03:12:15;;;;;;;65.57;34.13;;;;;;;-0.65;70.40;100380.50;5088307;28;20483;-22
2022/02/05 03:14:41;;;;;;;64.20;31.20;;;;;;;-0.56;70.22;100370.97;5070034;28;20028;-21
2022/02/05 03:17:17;;;;;;;56.88;29.10;;;;;;;-0.25;67.88;100357.69;5087697;28;20036;-20
2022/02/05 03:19:47;;;;;;;54.33;28.83;;;;;;;-0.83;70.18;100351.56;5087884;28;20032;-21
2022/02/05 03:22:16;;;;;;;60.42;34.90;;;;;;;-1.34;72.74;100354.41;5087624;28;20032;-21
2022/02/05 03:24:42;;;;;;;52.03;28.75;;;;;;;-1.16;73.71;100368.47;5087923;28;20028;-20
2022/02/05 03:27:08;;;;;;;104.60;49.33;;;;;;;-0.71;71.39;100352.25;5087704;28;20036;-20
2022/02/05 03:29:34;;;;;;;54.17;30.20;;;;;;;-0.48;70.40;100346.69;5087386;28;20123;-21
2022/02/05 03:31:59;;;;;;;52.97;28.30;;;;;;;-0.38;70.13;100351.94;5087607;28;20024;-21
2022/02/05 03:34:25;;;;;;;50.22;27.58;;;;;;;-0.24;68.40;100344.44;5069532;28;20105;-21
2022/02/05 03:36:50;;;;;;;44.95;23.92;;;;;;;-0.29;68.73;100348.44;5087543;28;20039;-21
2022/02/05 03:39:16;;;;;;;65.57;31.08;;;;;;;-0.87;70.10;100329.22;5087302;28;20043;-21
2022/02/05 03:41:41;;;;;;;44.60;23.38;;;;;;;-0.83;71.55;100346.31;5087704;28;20028;-20
2022/02/05 03:44:07;;;;;;;43.15;21.45;;;;;;;-0.78;70.54;100334.59;5087422;28;20036;-21
2022/02/05 03:46:32;;;;;;;34.67;19.50;;;;;;;-0.59;70.05;100355.56;5087276;28;20095;-21
2022/02/05 03:48:58;;;;;;;41.85;20.50;;;;;;;-0.98;70.81;100366.03;5087217;28;20028;-21
2022/02/05 03:51:24;;;;;;;38.03;19.55;;;;;;;-1.67;72.37;100357.19;5068831;28;20465;-21
2022/02/05 03:53:50;;;;;;;42.83;21.55;;;;;;;-1.16;71.17;100378.13;5087212;28;20028;-21
2022/02/05 03:56:15;;;;;;;35.88;20.77;;;;;;;-1.60;71.02;100360.09;5087327;28;20028;-21
2022/02/05 03:58:41;;;;;;;36.65;20.45;;;;;;;-2.22;71.66;100344.44;5087149;28;20416;-21
2022/02/05 04:01:07;;;;;;;39.03;21.20;;;;;;;-2.31;73.01;100354.81;5087068;28;20039;-21
2022/02/05 04:03:32;;;;;;;37.83;19.90;;;;;;;-2.38;74.38;100366.75;5068991;28;20039;-20
2022/02/05 04:05:58;;;;;;;38.05;20.75;;;;;;;-2.38;74.69;100374.59;5087028;28;20042;-21
2022/02/05 04:08:24;;;;;;;38.20;20.23;;;;;;;-2.01;73.25;100382.78;5069332;28;20457;-20
2022/02/05 04:11:04;;;;;;;36.05;20.60;;;;;;;-2.31;74.26;100370.50;5087080;28;20028;-22
2022/02/05 04:18:39;;;;;;;38.22;21.58;;;;;;;-2.99;78.05;100370.81;5088189;28;20036;-21
2022/02/05 04:21:04;;;;;;;37.25;20.95;;;;;;;-2.89;78.89;100360.47;5090864;28;20466;-22
2022/02/05 04:23:31;;;;;;;47.00;22.50;;;;;;;-2.60;78.01;100367.69;5090831;28;20047;-21
2022/02/05 04:25:56;;;;;;;56.47;24.45;;;;;;;-2.42;77.38;100355.72;5072654;28;20024;-21
2022/02/05 04:28:22;;;;;;;42.13;21.73;;;;;;;-2.16;76.19;100348.31;5090972;28;20059;-21
2022/02/05 04:30:47;;;;;;;41.20;21.40;;;;;;;-1.86;74.86;100376.25;5090630;28;20031;-21
2022/02/05 04:33:13;;;;;;;48.90;32.75;;;;;;;-1.72;72.16;100371.63;5072667;28;20027;-20
2022/02/05 04:35:40;;;;;;;66.15;51.63;;;;;;;-1.96;72.32;100364.09;5072534;28;20522;-21
2022/02/05 04:38:07;;;;;;;81.95;66.03;;;;;;;-2.02;74.22;100379.34;5090901;28;20032;-21
2022/02/05 04:40:39;;;;;;;117.65;75.43;;;;;;;-1.53;71.46;100392.63;5090843;28;20419;-20
2022/02/05 04:45:58;;;;;;;98.22;47.35;;;;;;;-1.49;70.54;100369.63;5090235;28;20035;-22
2022/02/05 05:02:32;;;;;;;32.15;16.58;;;;;;;-1.82;71.09;100384.66;5090297;28;20043;-20
2022/02/05 05:20:09;;;;;;;27.00;14.55;;;;;;;-1.45;70.60;100394.56;5074489;28;20574;-21
2022/02/05 05:22:34;;;;;;;28.15;14.68;;;;;;;-1.68;69.95;100381.69;5089877;28;20028;-21
2022/02/05 05:25:00;;;;;;;23.38;13.05;;;;;;;-2.20;71.13;100393.94;5089625;28;20031;-20
2022/02/05 05:27:26;;;;;;;27.23;15.13;;;;;;;-2.72;72.69;100366.91;5089768;28;20683;-21
2022/02/05 05:29:52;;;;;;;42.20;25.38;;;;;;;-2.03;71.79;100380.28;5071889;28;20028;-21
2022/02/05 05:32:17;;;;;;;57.38;35.58;;;;;;;-1.58;70.29;100409.66;5072046;28;20403;-21
2022/02/05 05:34:43;;;;;;;40.97;26.85;;;;;;;-2.25;72.37;100383.03;5089944;28;20032;-20
2022/02/05 05:37:08;;;;;;;48.20;24.73;;;;;;;-1.96;71.66;100385.00;5089660;28;20088;-21
2022/02/05 05:39:36;;;;;;;46.55;25.52;;;;;;;-1.88;70.89;100398.25;5089365;28;20028;-21
2022/02/05 05:42:04;;;;;;;54.78;30.35;;;;;;;-1.98;70.99;100394.75;5089629;28;20440;-22
2022/02/05 05:47:14;;;;;;;45.85;24.83;;;;;;;-1.84;71.84;100404.88;5089705;28;20090;-20
2022/02/05 05:52:17;;;;;;;62.15;35.10;;;;;;;-2.05;72.59;100403.09;5089173;28;20040;-21
2022/02/05 05:54:42;;;;;;;44.90;25.38;;;;;;;-1.70;71.64;100396.66;5089294;28;20039;-22
2022/02/05 05:57:08;;;;;;;42.67;23.23;;;;;;;-1.62;71.78;100399.44;5089129;28;20027;-20
2022/02/05 05:59:33;;;;;;;45.85;23.50;;;;;;;-1.49;71.68;100408.84;5088909;28;20496;-20
2022/02/05 06:01:59;;;;;;;45.00;25.95;;;;;;;-2.12;73.93;100386.31;5089253;28;20883;-21
2022/02/05 06:04:24;;;;;;;53.10;31.92;;;;;;;-2.25;75.97;100411.78;5060155;28;20037;-20
2022/02/05 06:06:50;;;;;;;62.42;34.38;;;;;;;-2.31;75.20;100420.13;5068794;28;20040;-21
2022/02/05 06:09:15;;;;;;;58.08;33.10;;;;;;;-1.91;74.18;100419.44;5068781;28;20036;-22
2022/02/05 06:11:41;;;;;;;55.15;32.78;;;;;;;-1.38;72.57;100426.25;5069032;28;20037;-21
2022/02/05 06:14:06;;;;;;;69.72;42.72;;;;;;;-0.94;71.93;100429.38;5068844;28;20693;-21
2022/02/05 06:16:33;;;;;;;94.65;53.92;;;;;;;-1.04;71.60;100408.47;5068677;28;20507;-20
2022/02/05 06:18:59;;;;;;;135.77;72.18;;;;;;;-0.65;71.98;100418.97;5051053;28;20127;-20
2022/02/05 06:21:24;;;;;;;122.25;67.15;;;;;;;-0.63;71.55;100419.66;5050836;28;20032;-21
2022/02/05 06:23:50;;;;;;;81.20;44.20;;;;;;;-0.43;71.10;100400.34;5050172;28;20063;-21
2022/02/05 06:26:16;;;;;;;60.17;32.70;;;;;;;-0.51;71.13;100415.09;5068733;28;20608;-22
2022/02/05 06:28:41;;;;;;;60.47;30.65;;;;;;;-0.19;70.61;100427.06;5068745;28;20111;-21
2022/02/05 06:31:07;;;;;;;49.28;27.02;;;;;;;-0.13;70.77;100424.72;5068722;28;20572;-21
2022/02/05 06:33:32;;;;;;;45.83;25.52;;;;;;;-0.15;70.33;100420.59;5068215;28;20036;-20
2022/02/05 06:35:58;;;;;;;51.10;28.90;;;;;;;-0.50;72.82;100414.94;5068082;28;20036;-21
2022/02/05 06:38:24;;;;;;;68.15;41.42;;;;;;;-0.18;71.19;100415.59;5068272;28;20029;-21
2022/02/05 06:40:52;;;;;;;50.00;27.40;;;;;;;-0.44;72.59;100421.44;5067903;28;20024;-21
2022/02/05 06:43:18;;;;;;;49.95;27.55;;;;;;;0.03;71.67;100424.13;5067500;28;20036;-21
2022/02/05 06:45:43;;;;;;;45.42;25.23;;;;;;;0.24;70.28;100429.16;5067754;28;20029;-20
2022/02/05 06:48:10;;;;;;;46.28;24.83;;;;;;;0.13;70.92;100416.25;5067811;28;20028;-21
2022/02/05 06:50:36;;;;;;;43.05;22.90;;;;;;;0.23;69.96;100426.72;5067737;28;20040;-20
2022/02/05 06:53:01;;;;;;;115.32;52.97;;;;;;;0.53;70.44;100423.00;5067814;28;20033;-22
2022/02/05 06:55:28;;;;;;;59.92;33.58;;;;;;;0.66;68.40;100402.50;5049394;28;20033;-21
2022/02/05 06:57:53;;;;;;;47.47;27.17;;;;;;;0.77;68.42;100420.66;5067526;28;20086;-23
2022/02/05 07:00:19;;;;;;;58.88;36.05;;;;;;;0.33;70.97;100420.47;5067652;28;20036;-20
2022/02/05 07:02:44;;;;;;;57.45;34.78;;;;;;;0.69;70.29;100425.81;5049354;28;20036;-21
2022/02/05 07:05:10;;;;;;;152.68;76.38;;;;;;;1.01;69.45;100424.56;5068003;28;20039;-21
2022/02/05 07:07:36;;;;;;;61.58;35.38;;;;;;;1.19;68.26;100401.75;5049416;28;20420;-21
2022/02/05 07:10:01;;;;;;;44.83;26.13;;;;;;;0.86;69.79;100420.75;5067508;28;20036;-21
2022/02/05 07:12:27;;;;;;;59.63;34.70;;;;;;;1.02;70.21;100420.13;5049406;28;20127;-21
2022/02/05 07:17:48;;;;;;;;;;;;;;;1.42;68.96;100418.88;5067417;28;20035;-21
2022/02/05 07:30:57;;;;;;;52.35;28.52;;;;;;;1.82;67.31;100376.31;4994363;28;20053;-22
2022/02/05 07:33:22;;;;;;;;;;;;;;;1.80;68.23;100391.41;5050090;28;20029;-20
2022/02/05 07:35:49;;;;;;;54.50;31.77;;;;;;;1.88;67.38;100391.47;5067081;28;19931;-21
2022/02/05 07:38:14;;;;;;;51.17;31.42;;;;;;;1.98;68.70;100410.63;5048995;28;20044;-21
2022/02/05 07:40:40;;;;;;;49.45;28.00;;;;;;;1.22;70.17;100398.00;5074469;28;20077;-22
2022/02/05 07:43:05;;;;;;;43.15;27.33;;;;;;;1.29;70.86;100395.56;5076731;28;20035;-21
2022/02/05 07:45:31;;;;;;;51.30;29.17;;;;;;;1.64;69.54;100399.19;5071995;28;20043;-21
2022/02/05 07:47:56;;;;;;;86.32;45.75;;;;;;;1.85;69.55;100397.03;5067104;28;20029;-20
2022/02/05 07:50:22;;;;;;;64.50;37.15;;;;;;;1.85;69.43;100391.78;5037196;28;20061;-21
2022/02/05 07:52:47;;;;;;;149.50;68.20;;;;;;;1.81;69.32;100393.06;5024930;28;20136;-20
2022/02/05 07:55:13;;;;;;;44.65;28.90;;;;;;;2.32;68.12;100399.28;5078845;28;20024;-21
2022/02/05 07:57:38;;;;;;;46.08;27.52;;;;;;;2.36;67.00;100390.09;5079510;28;20036;-21
2022/02/05 08:00:05;;;;;;;44.83;26.98;;;;;;;2.43;67.80;100390.28;5079866;28;20063;-21
2022/02/05 08:02:30;;;;;;;44.22;26.13;;;;;;;2.64;67.10;100391.69;5079341;28;20035;-22
2022/02/05 08:04:56;;;;;;;43.72;26.50;;;;;;;2.84;65.68;100397.50;5081086;28;20020;-22
2022/02/05 08:07:21;;;;;;;60.72;35.53;;;;;;;3.17;64.84;100383.44;5079369;28;20020;-21
2022/02/05 08:12:17;;;;;;;;;;;;;;;3.34;65.44;100394.00;5081668;28;20479;-22
2022/02/05 08:14:46;;;;;;;46.85;27.45;;;;;;;2.95;66.13;100384.88;5079762;28;19908;-21
2022/02/05 08:17:33;;;;;;;129.80;58.83;;;;;;;3.50;65.77;100399.28;5076211;28;20694;-21
2022/02/05 08:19:59;;;;;;;41.38;25.65;;;;;;;3.25;65.49;100405.50;5070491;28;20177;-22
2022/02/05 08:22:24;;;;;;;41.30;26.33;;;;;;;3.05;66.67;100403.16;5070720;28;20058;-21
2022/02/05 08:24:50;;;;;;;39.90;24.73;;;;;;;3.06;66.20;100367.91;5070308;28;20082;-20
2022/02/05 08:27:15;;;;;;;42.25;26.23;;;;;;;2.84;66.78;100390.44;5070905;28;20032;-21
2022/02/05 08:29:51;;;;;;;37.35;24.00;;;;;;;3.10;65.63;100397.41;5052450;28;20111;-21
2022/02/05 08:32:19;;;;;;;116.35;82.32;;;;;;;3.65;64.76;100390.69;5037442;28;20116;-21
2022/02/05 08:34:44;;;;;;;39.60;24.95;;;;;;;4.13;62.38;100395.09;5070370;28;20025;-22
2022/02/05 08:37:10;;;;;;;42.42;25.52;;;;;;;4.08;64.50;100392.13;5070289;28;20032;-21
2022/02/05 08:39:35;;;;;;;41.47;24.05;;;;;;;4.03;62.96;100397.91;5073496;28;20043;-21
2022/02/05 08:42:02;;;;;;;39.38;24.73;;;;;;;4.33;64.50;100400.81;5090758;28;20396;-22
2022/02/05 08:44:28;;;;;;;39.90;25.50;;;;;;;4.35;63.00;100406.75;5090502;28;20039;-21
2022/02/05 08:46:54;;;;;;;41.10;25.05;;;;;;;3.68;65.15;100390.34;5090183;28;20028;-21
2022/02/05 08:49:19;;;;;;;39.13;24.40;;;;;;;3.65;66.49;100385.41;5090430;28;20024;-20
2022/02/05 08:51:44;;;;;;;41.60;25.08;;;;;;;4.11;65.67;100390.97;5090826;28;20031;-21
2022/02/05 08:54:10;;;;;;;37.35;23.83;;;;;;;4.50;64.31;100391.00;5072230;28;20028;-21
2022/02/05 08:56:35;;;;;;;38.08;23.95;;;;;;;4.29;62.86;100404.78;5090605;28;20630;-20
2022/02/05 08:59:03;;;;;;;35.17;22.08;;;;;;;4.40;64.56;100400.94;5090089;28;20132;-21
2022/02/05 09:01:41;;;;;;;159.52;85.75;;;;;;;4.70;63.13;100394.06;5089876;28;20040;-22
2022/02/05 09:04:17;;;;;;;36.05;21.35;;;;;;;4.56;62.82;100389.50;5089615;28;20616;-21
2022/02/05 09:06:46;;;;;;;34.40;21.42;;;;;;;4.93;59.99;100385.38;5090203;28;20435;-21
2022/02/05 09:11:53;;;;;;;37.65;22.00;;;;;;;4.87;60.76;100372.84;5072554;28;20031;-21
2022/02/05 09:16:50;;;;;;;31.85;19.50;;;;;;;5.65;58.44;100379.72;5090111;28;20028;-21
2022/02/05 09:19:15;;;;;;;27.58;18.23;;;;;;;5.57;55.68;100371.84;5071454;28;20086;-21
2022/02/05 09:21:41;;;;;;;28.00;18.90;;;;;;;5.80;55.73;100343.53;5071731;28;20496;-21
2022/02/05 09:24:07;;;;;;;51.60;30.67;;;;;;;6.18;54.27;100366.47;5089639;28;20499;-21
2022/02/05 09:26:38;;;;;;;29.80;19.33;;;;;;;6.17;56.48;100378.91;5089602;28;20031;-21
2022/02/05 09:29:12;;;;;;;29.25;19.40;;;;;;;5.99;58.39;100376.59;5089606;28;20051;-20
2022/02/05 09:31:37;;;;;;;28.88;18.55;;;;;;;6.15;55.99;100385.38;5071481;28;20028;-21
2022/02/05 09:34:05;;;;;;;26.60;16.80;;;;;;;6.37;54.86;100376.50;5089421;28;20499;-21
2022/02/05 09:36:31;;;;;;;29.83;17.05;;;;;;;6.49;55.18;100368.91;5089628;28;20024;-21
2022/02/05 09:38:56;;;;;;;27.17;17.42;;;;;;;6.55;55.48;100375.31;5089384;28;20547;-20
2022/02/05 09:41:22;;;;;;;26.65;17.52;;;;;;;6.76;53.83;100364.78;5088931;28;20036;-20
2022/02/05 09:43:48;;;;;;;26.77;16.95;;;;;;;7.31;53.81;100370.44;5089289;28;20407;-20
2022/02/05 09:46:15;;;;;;;28.75;17.77;;;;;;;7.43;52.95;100360.13;5089081;28;20032;-21
2022/02/05 09:48:41;;;;;;;35.90;24.35;;;;;;;7.71;50.60;100365.47;5089498;28;20028;-21
2022/02/05 09:51:15;;;;;;;24.48;14.73;;;;;;;7.63;49.01;100361.13;5037891;28;20499;-20
2022/02/05 09:53:53;;;;;;;22.85;15.18;;;;;;;7.51;48.28;100360.00;5089131;28;20457;-21
2022/02/05 09:56:19;;;;;;;92.72;51.75;;;;;;;8.00;46.59;100350.34;5089234;28;20034;-20
2022/02/05 09:58:45;;;;;;;24.33;14.48;;;;;;;7.83;48.27;100350.66;5089009;28;20066;-20
2022/02/05 10:01:15;;;;;;;23.63;14.80;;;;;;;8.28;46.88;100355.63;5070650;28;20031;-20
2022/02/05 10:03:45;;;;;;;28.10;19.60;;;;;;;8.32;47.50;100342.78;5081866;28;20067;-20
2022/02/05 10:06:17;;;;;;;31.85;21.63;;;;;;;8.57;48.00;100351.09;5076584;28;20035;-20
2022/02/05 10:08:54;;;;;;;32.20;21.05;;;;;;;8.51;47.61;100327.94;5077157;28;20059;-21
2022/02/05 10:11:19;;;;;;;27.95;19.35;;;;;;;8.66;47.39;100341.91;5076269;28;20024;-20
2022/02/05 10:13:45;;;;;;;26.60;18.38;;;;;;;8.92;46.70;100335.03;5058397;28;20400;-20
2022/02/05 10:16:11;;;;;;;27.88;19.52;;;;;;;9.38;49.09;100331.63;5077441;28;20093;-20
2022/02/05 10:18:38;;;;;;;27.85;18.73;;;;;;;9.32;48.58;100308.47;5042669;28;20032;-21
2022/02/05 10:21:28;;;;;;;24.80;16.35;;;;;;;9.29;46.50;100340.81;5058538;28;20101;-21
2022/02/05 10:24:08;;;;;;;28.33;19.27;;;;;;;9.22;48.82;100346.94;5076796;28;20068;-20
2022/02/05 10:26:37;;;;;;;24.25;16.73;;;;;;;9.59;48.28;100336.72;5076695;28;20032;-20
2022/02/05 10:29:10;;;;;;;25.95;18.02;;;;;;;9.53;47.67;100326.91;5076356;28;20034;-20
2022/02/05 10:31:54;;;;;;;31.25;23.88;;;;;;;9.19;48.37;100323.41;5076707;28;20504;-20
2022/02/05 10:34:20;;;;;;;22.33;15.38;;;;;;;9.72;45.25;100311.91;5077428;28;20020;-21
2022/02/05 10:36:47;;;;;;;28.45;16.50;;;;;;;9.83;45.77;100303.31;5075916;28;20062;-20
2022/02/05 10:44:35;;;;;;;24.08;16.75;;;;;;;10.71;44.26;100302.00;5060910;28;20578;-21
2022/02/05 10:47:00;;;;;;;31.25;17.70;;;;;;;10.47;45.22;100297.41;5076643;28;20032;-20
2022/02/05 10:49:34;;;;;;;22.85;14.93;;;;;;;11.13;42.09;100286.31;5059519;28;20036;-21
2022/02/05 10:52:00;;;;;;;24.60;15.57;;;;;;;11.01;43.50;100280.03;5058921;28;20029;-21
2022/02/05 10:54:38;;;;;;;26.60;15.27;;;;;;;11.03;43.42;100292.16;5075805;28;20424;-21
2022/02/05 10:57:20;;;;;;;22.25;13.93;;;;;;;10.64;44.28;100295.84;5078241;28;20028;-20
2022/02/05 11:06:13;;;;;;;22.20;14.93;;;;;;;10.50;46.29;100278.28;5071815;28;20427;-21
2022/02/05 11:08:15;;;;;;;24.35;15.43;;;;;;;10.88;48.54;100274.81;5073866;28;20297;-21
2022/02/05 11:18:58;;;;;;;19.90;13.70;;;;;;;11.25;42.68;100260.53;5087344;28;20522;-20
2022/02/05 11:21:24;;;;;;;31.40;21.77;;;;;;;11.12;44.08;100260.66;5086909;28;20035;-20
2022/02/05 11:23:51;;;;;;;17.75;12.05;;;;;;;10.60;43.40;100254.66;5087242;28;20031;-21
2022/02/05 11:26:20;;;;;;;18.27;12.07;;;;;;;11.73;39.60;100255.56;5061386;28;20804;-21
2022/02/05 11:28:47;;;;;;;21.23;14.18;;;;;;;12.39;39.43;100244.13;5058355;28;20264;-20
2022/02/05 11:31:37;;;;;;;19.65;12.13;;;;;;;12.32;38.85;100258.63;5083963;28;20035;-21
2022/02/05 11:34:20;;;;;;;19.63;13.18;;;;;;;12.79;39.14;100254.28;5072296;28;20078;-20
2022/02/05 11:36:56;;;;;;;21.83;13.20;;;;;;;12.74;38.11;100251.47;5087012;28;20679;-20
2022/02/05 11:39:22;;;;;;;23.42;16.58;;;;;;;14.09;36.95;100253.50;5070455;28;20103;-20
2022/02/05 11:41:47;;;;;;;18.95;12.32;;;;;;;13.80;36.09;100248.88;5087042;28;20177;-20
2022/02/05 11:44:15;;;;;;;17.63;12.05;;;;;;;14.02;36.48;100242.91;5068834;28;20020;-20
2022/02/05 11:46:42;;;;;;;17.48;12.20;;;;;;;13.98;38.40;100250.59;5087197;28;20024;-20
2022/02/05 11:49:07;;;;;;;19.10;12.00;;;;;;;14.04;36.62;100249.66;5087120;28;20024;-20
2022/02/05 11:51:51;;;;;;;18.75;11.30;;;;;;;14.16;35.95;100246.13;5086833;28;20446;-20
2022/02/05 11:54:17;;;;;;;19.00;12.15;;;;;;;14.26;35.84;100246.31;5086941;28;20060;-20
2022/02/05 11:59:33;;;;;;;17.50;11.27;;;;;;;14.09;37.86;100232.84;5086538;28;20056;-20
2022/02/05 12:02:12;;;;;;;15.90;10.23;;;;;;;14.18;36.23;100231.44;5086722;28;20086;-21
2022/02/05 12:04:37;;;;;;;37.42;23.45;;;;;;;14.74;35.23;100210.19;5086508;28;20059;-20
2022/02/05 12:07:07;;;;;;;14.90;10.32;;;;;;;14.74;34.92;100225.50;5086543;28;20031;-21
2022/02/05 12:09:45;;;;;;;19.20;11.82;;;;;;;14.61;34.73;100222.06;5086630;28;20020;-20
2022/02/05 12:12:22;;;;;;;14.73;10.45;;;;;;;15.39;34.46;100218.72;5086818;28;20035;-20
2022/02/05 12:15:14;;;;;;;17.42;10.95;;;;;;;14.52;35.47;100206.56;5086923;28;20079;-21
2022/02/05 12:20:33;;;;;;;58.50;40.78;;;;;;;14.72;33.46;100192.72;5086616;28;20036;-20
2022/02/05 12:26:00;;;;;;;22.35;13.52;;;;;;;15.67;33.67;100202.44;5086581;28;20105;-20
2022/02/05 12:28:29;;;;;;;16.60;11.13;;;;;;;16.58;31.78;100206.44;5086805;28;20032;-21
2022/02/05 12:30:55;;;;;;;20.95;14.02;;;;;;;16.84;31.15;100212.91;5086529;28;20028;-20
2022/02/05 12:33:20;;;;;;;16.83;11.50;;;;;;;16.68;30.55;100200.34;5068340;28;20089;-20
2022/02/05 12:35:50;;;;;;;16.92;11.57;;;;;;;16.98;29.75;100217.84;5051782;28;20036;-20
2022/02/05 12:38:16;;;;;;;495.98;161.95;;;;;;;16.84;31.31;100206.69;5086308;28;20039;-20
2022/02/05 12:40:45;;;;;;;88.63;39.60;;;;;;;17.23;30.11;100203.75;5089053;28;20040;-21
2022/02/05 12:43:13;;;;;;;17.45;11.45;;;;;;;17.51;29.44;100207.97;5090316;28;20028;-22
2022/02/05 12:45:58;;;;;;;17.55;10.75;;;;;;;17.58;29.33;100211.22;5076677;28;20035;-20
2022/02/05 12:48:26;;;;;;;15.23;9.68;;;;;;;17.63;29.48;100194.25;5079470;28;20032;-20
2022/02/05 12:50:51;;;;;;;18.33;11.02;;;;;;;17.72;29.67;100208.06;5077525;28;20035;-21
2022/02/05 12:53:17;;;;;;;16.10;11.10;;;;;;;17.27;29.96;100212.94;5051490;28;20040;-21
2022/02/05 12:55:45;;;;;;;13.05;9.98;;;;;;;17.71;30.89;100182.16;5090375;28;20035;-20
2022/02/05 12:58:11;;;;;;;;;;;;;;;17.58;30.66;100203.13;5072302;28;20056;-20
2022/02/05 13:00:37;;;;;;;13.38;10.18;;;;;;;17.81;30.45;100195.69;5077864;28;19984;-21
2022/02/05 13:03:19;;;;;;;15.18;10.30;;;;;;;17.73;30.30;100210.50;5060048;28;20036;-20
2022/02/05 13:05:45;;;;;;;15.05;10.48;;;;;;;18.53;29.18;100206.72;5042696;28;20028;-20
2022/02/05 13:08:10;;;;;;;15.85;10.38;;;;;;;17.94;30.36;100205.22;5081313;28;20882;-20
2022/02/05 13:10:43;;;;;;;13.85;9.98;;;;;;;17.35;30.27;100193.59;5059507;28;20032;-20
2022/02/05 13:13:08;;;;;;;15.52;9.90;;;;;;;18.13;30.29;100202.88;5075873;28;20032;-20
2022/02/05 13:15:34;;;;;;;13.80;9.68;;;;;;;17.64;30.81;100190.50;5078489;28;20042;-20
2022/02/05 13:29:17;;;;;;;42.00;25.58;;;;;;;21.22;25.39;100188.84;5068882;28;20040;-20
2022/02/05 13:34:12;;;;;;;15.90;10.75;;;;;;;21.22;24.85;100188.84;5069231;28;20093;-20
2022/02/05 13:36:56;;;;;;;12.05;8.85;;;;;;;21.63;25.12;100182.19;5068700;28;20041;-20
2022/02/05 13:42:13;;;;;;;13.07;9.10;;;;;;;19.67;27.26;100188.22;5068963;28;20032;-20
2022/02/05 13:44:57;;;;;;;13.70;9.80;;;;;;;21.13;24.94;100179.72;5068569;28;20028;-20
2022/02/05 13:47:33;;;;;;;15.15;9.68;;;;;;;22.21;23.55;100192.00;5068877;28;20097;-20
2022/02/05 13:49:58;;;;;;;12.65;8.95;;;;;;;22.90;22.67;100205.13;5068753;28;20578;-20
2022/02/05 13:52:31;;;;;;;17.98;11.90;;;;;;;23.74;22.06;100187.81;5067620;28;20056;-20
2022/02/05 13:54:56;;;;;;;21.98;13.55;;;;;;;24.38;21.31;100196.78;5051557;28;20731;-20
2022/02/05 13:57:23;;;;;;;16.40;11.23;;;;;;;24.29;20.75;100187.72;5068690;28;20052;-20
2022/02/05 13:59:56;;;;;;;17.55;11.98;;;;;;;24.36;21.84;100193.56;5068116;28;20084;-20
2022/02/05 14:02:22;;;;;;;19.27;10.68;;;;;;;25.12;20.53;100192.81;5068462;28;20029;-19
2022/02/05 14:05:09;;;;;;;13.85;10.93;;;;;;;24.34;21.15;100195.78;5067351;28;20762;-21
2022/02/05 14:07:45;;;;;;;16.95;10.45;;;;;;;24.35;20.94;100185.69;5068117;28;20093;-20
2022/02/05 14:10:29;;;;;;;13.60;8.35;;;;;;;25.08;20.48;100191.81;5068064;28;20032;-20
2022/02/05 14:12:55;;;;;;;11.80;8.45;;;;;;;26.60;19.21;100195.13;5068362;28;20085;-20
2022/02/05 14:15:24;;;;;;;13.18;8.82;;;;;;;27.61;18.36;100205.63;5068010;28;20029;-20
2022/02/05 14:18:06;;;;;;;10.10;8.23;;;;;;;28.60;16.61;100196.91;5068044;28;20478;-22
2022/02/05 14:20:37;;;;;;;10.85;8.25;;;;;;;27.97;17.14;100207.06;5067809;28;20032;-20
2022/02/05 14:23:07;;;;;;;11.38;8.38;;;;;;;29.64;15.65;100194.13;5068091;28;20033;-21
2022/02/05 14:25:35;;;;;;;13.93;8.52;;;;;;;27.73;17.74;100210.41;5067691;28;20042;-20
2022/02/05 14:28:13;;;;;;;11.90;8.88;;;;;;;25.30;20.39;100203.84;5034103;28;20033;-21
2022/02/05 14:30:43;;;;;;;12.38;9.27;;;;;;;22.51;22.61;100209.00;5050855;28;20036;-21
2022/02/05 14:33:10;;;;;;;11.90;8.95;;;;;;;19.89;26.55;100195.22;5078061;28;20032;-20
2022/02/05 14:35:49;;;;;;;11.32;8.68;;;;;;;18.23;29.11;100208.28;5077437;28;20027;-20
2022/02/05 14:40:59;;;;;;;12.63;8.93;;;;;;;15.41;34.79;100189.75;5076701;28;20942;-20
2022/02/05 14:43:26;;;;;;;13.38;9.88;;;;;;;15.10;35.07;100202.72;5075589;28;20027;-20
2022/02/05 14:45:53;;;;;;;16.73;10.65;;;;;;;14.94;35.40;100195.50;5077332;28;20162;-20